Aviation Digital Data Service (ADDS)

Output produced by METARs form (1536 UTC 27 May 2017)
found at http://aviationweather.gov/adds/metars/
 
KFNT 271506Z 2715/2812 13005KT P6SM SCT030 
     TEMPO 2715/2717 BKN030 
     FM271700 14005KT P6SM SCT040 BKN050 
     FM280000 14003KT P6SM SCT040